DAUADAUH

Guest
Details From DAUA - TOUAT CHEIKH SIDI MOHAMED BELKEBIR
To DAUH - OUED IRARA
Flight Number -
Tags generated
Created
Modified
Stats Distance 422 nm / 781 km
Max Altitude 35,000 ft / 10,668 m
Waypoints 6
Social Downloads 0
Likes 0
Share VATSIM

Download

Looking for another format? Having issues loading an existing format? Contact us
Advertisement - Login to hide

Notes

Basic altitude profile: - Ascent Rate: 2500ft/min - Ascent Speed: 250kts - Cruise Altitude: 35000ft - Cruise Speed: 420kts - Descent Rate: 1500ft/min - Descent Speed: 250kts Options: - Use NATs: yes - Use PACOTS: yes - Use low airways: yes - Use high airways: yes

Route

DAUA RAHIL UG852 MNA J26 HME DAUH

ID Type Via Altitude Latitude Longitude Leg Dist Tot Dist Heading (true) Name
O DAUA APT - 0 ft / 0 m 27.83764˚ -0.18639˚ - 0 nm - TOUAT CHEIKH SIDI MOHAMED BELKEBIR
RAHIL FIX - 33,900 ft / 10,333 m 28.50000˚ 1.50000˚ 97 nm 97 nm 66° / 66° -
MNA VOR UG852 (AWY-HI) 35,000 ft / 10,668 m 30.55861˚ 2.86167˚ 142 nm 240 nm 30° / 30° EL GOLEA VOR-DME
KEBRI FIX J26 (AWY-HI) 13,400 ft / 4,084 m 31.30000˚ 5.00000˚ 118 nm 359 nm 67° / 69° -
HME VOR J26 (AWY-LO) 9,500 ft / 2,896 m 31.66433˚ 6.13618˚ 62 nm 421 nm 69° / 70° HASSI MESSAOUD VOR-DME
O DAUH APT - 0 ft / 0 m 31.67290˚ 6.14046˚ 0 nm 421 nm 23° / 23° OUED IRARA

Altitude Profile

Advertisement - Login to hide

Weather


0- 5 10 15 20 25 30 35+ Temperature / ° C

Clouds and Precipitation
Forecast for 2017-12-14 18:00 UTC. Updated 28 minutes ago

Ground ~20,000 ft ~40,000 ft Winds

DAUA

Details ICAO DAUA (AZR)
Name TOUAT CHEIKH SIDI MOHAMED BELKEBIR
Region Algeria
Timezone Africa/Algiers (UTC+1.0)
Stats Elevation 919 ft / 280 m (AMSL)
Location 27.837639° -0.186389°
Runways 1
Magnetic Variation 0.087° W

METAR

DAUA 141700Z 00000KT 9999 FEW046 BKN133 24/M03 Q1017

Decode

TAF

TAF DAUA 141100Z 1412/1512 06016KT 9999 FEW043 SCT100 PROB30 TEMPO 1412/1418 06018G28KT 3000 DRSA PROB40 TEMPO 1417/1502 FEW040CB PROB40 TEMPO 1419/1501 08015G30KT 5000 -TSRA FEW036CB

Decode

Departure Runways

ID Width Length Bearing (true) Bearing (mag) Surface Threshold Offset Overrun Length
04 148 ft / 45 m 9,857 ft / 3,005 m 39.53° 39.62° Asphalt 0 ft / 0 m 0 ft / 0 m
22 148 ft / 45 m 9,857 ft / 3,005 m 219.54° 219.63° Asphalt 0 ft / 0 m 0 ft / 0 m

DAUH

Details ICAO DAUH (HME)
Name OUED IRARA
Region Algeria
Timezone Africa/Algiers (UTC+1.0)
Stats Elevation 463 ft / 141 m (AMSL)
Location 31.672900° 6.140458°
Runways 1
Magnetic Variation 1.419° E

METAR

DAUH 141730Z 03003KT CAVOK 16/04 Q1022

Decode

TAF

TAF DAUH 141100Z 1412/1512 02008KT CAVOK

Decode

Destination Runways

ID Width Length Bearing (true) Bearing (mag) Surface Threshold Offset Overrun Length
18 148 ft / 45 m 9,952 ft / 3,034 m 184.21° 182.79° Asphalt 0 ft / 0 m 328 ft / 100 m
36 148 ft / 45 m 9,952 ft / 3,034 m 4.20° 2.78° Asphalt 0 ft / 0 m 328 ft / 100 m